Al Hamla — V7MX9 — position and weather

sailwx.info

Track history (hours):
 
Tides and Currents Weather Stations Pressure Air Temp Water Temp Dewpoint Dewpoint Depression Visibility Wind Speed Wind Dir Waves Ship Positions

Al Hamla

Last reported at 2018-Feb-19 12:57 UTC. Time now 2018-Feb-20 10:08 UTC.
Position N 23°19' E 125°02'.

Length 315 m; draft 9.7 m.

Type: Ship (hazmat cat D). MMSI: 538002922.

Date/timePositionNaut miles runAvg speedWind from/ knotsBaromVisibWave heightAir tempDewpointWater temp
2018-Feb-19 12:57N 23°19' E 125°02'920.0
2018-Feb-19 12:30N 23°24' E 125°10'1720.0
2018-Feb-19 11:38N 23°34' E 125°26'320.2
2018-Feb-19 11:30N 23°35' E 125°29'1019.8
2018-Feb-19 11:00N 23°40' E 125°38'91819.8
2018-Feb-17 12:38N 34°01' E 138°30'218.6
2018-Feb-17 12:30N 34°02' E 138°32'918.3
2018-Feb-17 11:59N 34°09' E 138°39'1018.3
2018-Feb-17 11:25N 34°17' E 138°48'1117.8
2018-Feb-17 10:48N 34°26' E 138°56'517.5
2018-Feb-17 10:30N 34°30' E 139°00'1018.1
2018-Feb-17 09:56N 34°39' E 139°07'918.4
2018-Feb-17 09:26N 34°47' E 139°12'918.5
2018-Feb-17 08:55N 34°54' E 139°19'818.0
2018-Feb-17 08:30N 34°58' E 139°27'917.9
2018-Feb-17 08:01N 35°03' E 139°36'917.6
2018-Feb-17 07:30N 35°08' E 139°45'612.5
2018-Feb-17 07:00N 35°14' E 139°46'612.6
2018-Feb-17 06:30N 35°20' E 139°43'611.1
2018-Feb-17 06:00N 35°25' E 139°44'4 8.7
2018-Feb-17 05:30N 35°22' E 139°48'2 2.9
2018-Feb-17 04:55N 35°21' E 139°49'0 0.0
2018-Feb-17 04:29N 35°21' E 139°49'0 0.0
2018-Feb-17 03:58N 35°21' E 139°49'0 0.0
2018-Feb-17 03:28N 35°21' E 139°49'0 0.0
2018-Feb-17 02:58N 35°21' E 139°49'0 0.0
2018-Feb-17 02:28N 35°21' E 139°49'0 0.0
2018-Feb-17 01:58N 35°21' E 139°49'0 0.0
2018-Feb-17 01:28N 35°21' E 139°49'0 0.0
2018-Feb-17 00:58N 35°21' E 139°49'0 0.0
2018-Feb-17 00:28N 35°21' E 139°49'0 0.0
2018-Feb-16 23:58N 35°21' E 139°49'0 0.0
2018-Feb-16 23:28N 35°21' E 139°49'0 0.0
2018-Feb-16 22:58N 35°21' E 139°49'0 0.0
2018-Feb-16 22:28N 35°21' E 139°49'0 0.0
2018-Feb-16 21:58N 35°21' E 139°49'0 0.0
2018-Feb-16 21:28N 35°21' E 139°49'0 0.0
2018-Feb-16 20:58N 35°21' E 139°49'0 0.0
2018-Feb-16 20:28N 35°21' E 139°49'0 0.0
2018-Feb-16 19:58N 35°21' E 139°49'0 0.0
2018-Feb-16 19:28N 35°21' E 139°49'0 0.0
2018-Feb-16 18:58N 35°21' E 139°49'0 0.0
2018-Feb-16 18:28N 35°21' E 139°49'0 0.0
2018-Feb-16 17:58N 35°21' E 139°49'0 0.0
2018-Feb-16 17:28N 35°21' E 139°49'0 0.0
2018-Feb-16 16:58N 35°21' E 139°49'0 0.0
2018-Feb-16 16:25N 35°21' E 139°49'0 0.0
2018-Feb-16 15:58N 35°21' E 139°49'0 0.0
2018-Feb-16 15:28N 35°21' E 139°49'0 0.0
2018-Feb-16 14:58N 35°21' E 139°49'0 0.0
2018-Feb-16 14:25N 35°21' E 139°49'0 0.0
2018-Feb-16 13:58N 35°21' E 139°49'0 0.0
2018-Feb-16 13:25N 35°21' E 139°49'0 0.0
2018-Feb-16 12:58N 35°21' E 139°49'0 0.0
2018-Feb-16 12:28N 35°21' E 139°49'0 0.0
2018-Feb-16 11:58N 35°21' E 139°49'0 0.0
2018-Feb-16 11:28N 35°21' E 139°49'0 0.0
2018-Feb-16 10:58N 35°21' E 139°49'0 0.0
2018-Feb-16 10:28N 35°21' E 139°49'0 0.0
2018-Feb-16 09:55N 35°21' E 139°49'0 0.0
2018-Feb-16 09:28N 35°21' E 139°49'0 0.0
2018-Feb-16 08:58N 35°21' E 139°49'0 0.0
2018-Feb-16 08:28N 35°21' E 139°49'0 0.0
2018-Feb-16 07:58N 35°21' E 139°49'0 0.0
2018-Feb-16 07:28N 35°21' E 139°49'0 0.0
2018-Feb-16 06:49N 35°21' E 139°49'0 0.0
2018-Feb-16 06:28N 35°21' E 139°49'0 0.0
2018-Feb-16 05:55N 35°21' E 139°49'0 0.0
2018-Feb-16 05:28N 35°21' E 139°49'0 0.0
2018-Feb-16 05:00N 35°21' E 139°49'0 0.2
2018-Feb-16 04:31N 35°21' E 139°49'1 2.0
2018-Feb-16 04:01N 35°22' E 139°49'2 4.5
2018-Feb-16 03:30N 35°23' E 139°46'4 8.1
2018-Feb-16 03:00N 35°19' E 139°44'612.2
2018-Feb-16 02:30N 35°14' E 139°47'510.2
2018-Feb-16 02:00N 35°09' E 139°46'4 8.2
2018-Feb-16 01:30N 35°05' E 139°44'4 8.6
2018-Feb-16 01:00N 35°01' E 139°42'611.6
2018-Feb-16 00:29N 34°55' E 139°41'611.7
2018-Feb-15 23:59N 34°49' E 139°39'612.3
2018-Feb-15 23:30N 34°43' E 139°37'816.8
2018-Feb-15 23:00N 34°35' E 139°34'816.4
2018-Feb-15 22:30N 34°28' E 139°31'916.8
2018-Feb-15 21:59N 34°19' E 139°28'1016.2
2018-Feb-15 21:21N 34°10' E 139°22'  
2018-Feb-11 14:21N 18°49' E 118°47'614.7
2018-Feb-11 13:55N 18°44' E 118°43'  
Track history (hours):
 
Tides and Currents Weather Stations Pressure Air Temp Water Temp Dewpoint Dewpoint Depression Visibility Wind Speed Wind Dir Waves Ship Positions

Al Hamla

Last reported at 2018-Feb-19 12:57 UTC. Time now 2018-Feb-20 10:08 UTC.
Position N 23°19' E 125°02'.

Length 315 m; draft 9.7 m.

Type: Ship (hazmat cat D). MMSI: 538002922.

Date/timePositionNaut miles runAvg speedWind from/ knotsBaromVisibWave heightAir tempDewpointWater temp
2018-Feb-19 12:57N 23°19' E 125°02'920.0
2018-Feb-19 12:30N 23°24' E 125°10'1720.0
2018-Feb-19 11:38N 23°34' E 125°26'320.2
2018-Feb-19 11:30N 23°35' E 125°29'1019.8
2018-Feb-19 11:00N 23°40' E 125°38'91819.8
2018-Feb-17 12:38N 34°01' E 138°30'218.6
2018-Feb-17 12:30N 34°02' E 138°32'918.3
2018-Feb-17 11:59N 34°09' E 138°39'1018.3
2018-Feb-17 11:25N 34°17' E 138°48'1117.8
2018-Feb-17 10:48N 34°26' E 138°56'517.5
2018-Feb-17 10:30N 34°30' E 139°00'1018.1
2018-Feb-17 09:56N 34°39' E 139°07'918.4
2018-Feb-17 09:26N 34°47' E 139°12'918.5
2018-Feb-17 08:55N 34°54' E 139°19'818.0
2018-Feb-17 08:30N 34°58' E 139°27'917.9
2018-Feb-17 08:01N 35°03' E 139°36'917.6
2018-Feb-17 07:30N 35°08' E 139°45'612.5
2018-Feb-17 07:00N 35°14' E 139°46'612.6
2018-Feb-17 06:30N 35°20' E 139°43'611.1
2018-Feb-17 06:00N 35°25' E 139°44'4 8.7
2018-Feb-17 05:30N 35°22' E 139°48'2 2.9
2018-Feb-17 04:55N 35°21' E 139°49'0 0.0
2018-Feb-17 04:29N 35°21' E 139°49'0 0.0
2018-Feb-17 03:58N 35°21' E 139°49'0 0.0
2018-Feb-17 03:28N 35°21' E 139°49'0 0.0
2018-Feb-17 02:58N 35°21' E 139°49'0 0.0
2018-Feb-17 02:28N 35°21' E 139°49'0 0.0
2018-Feb-17 01:58N 35°21' E 139°49'0 0.0
2018-Feb-17 01:28N 35°21' E 139°49'0 0.0
2018-Feb-17 00:58N 35°21' E 139°49'0 0.0
2018-Feb-17 00:28N 35°21' E 139°49'0 0.0
2018-Feb-16 23:58N 35°21' E 139°49'0 0.0
2018-Feb-16 23:28N 35°21' E 139°49'0 0.0
2018-Feb-16 22:58N 35°21' E 139°49'0 0.0
2018-Feb-16 22:28N 35°21' E 139°49'0 0.0
2018-Feb-16 21:58N 35°21' E 139°49'0 0.0
2018-Feb-16 21:28N 35°21' E 139°49'0 0.0
2018-Feb-16 20:58N 35°21' E 139°49'0 0.0
2018-Feb-16 20:28N 35°21' E 139°49'0 0.0
2018-Feb-16 19:58N 35°21' E 139°49'0 0.0
2018-Feb-16 19:28N 35°21' E 139°49'0 0.0
2018-Feb-16 18:58N 35°21' E 139°49'0 0.0
2018-Feb-16 18:28N 35°21' E 139°49'0 0.0
2018-Feb-16 17:58N 35°21' E 139°49'0 0.0
2018-Feb-16 17:28N 35°21' E 139°49'0 0.0
2018-Feb-16 16:58N 35°21' E 139°49'0 0.0
2018-Feb-16 16:25N 35°21' E 139°49'0 0.0
2018-Feb-16 15:58N 35°21' E 139°49'0 0.0
2018-Feb-16 15:28N 35°21' E 139°49'0 0.0
2018-Feb-16 14:58N 35°21' E 139°49'0 0.0
2018-Feb-16 14:25N 35°21' E 139°49'0 0.0
2018-Feb-16 13:58N 35°21' E 139°49'0 0.0
2018-Feb-16 13:25N 35°21' E 139°49'0 0.0
2018-Feb-16 12:58N 35°21' E 139°49'0 0.0
2018-Feb-16 12:28N 35°21' E 139°49'0 0.0
2018-Feb-16 11:58N 35°21' E 139°49'0 0.0
2018-Feb-16 11:28N 35°21' E 139°49'0 0.0
2018-Feb-16 10:58N 35°21' E 139°49'0 0.0
2018-Feb-16 10:28N 35°21' E 139°49'0 0.0
2018-Feb-16 09:55N 35°21' E 139°49'0 0.0
2018-Feb-16 09:28N 35°21' E 139°49'0 0.0
2018-Feb-16 08:58N 35°21' E 139°49'0 0.0
2018-Feb-16 08:28N 35°21' E 139°49'0 0.0
2018-Feb-16 07:58N 35°21' E 139°49'0 0.0
2018-Feb-16 07:28N 35°21' E 139°49'0 0.0
2018-Feb-16 06:49N 35°21' E 139°49'0 0.0
2018-Feb-16 06:28N 35°21' E 139°49'0 0.0
2018-Feb-16 05:55N 35°21' E 139°49'0 0.0
2018-Feb-16 05:28N 35°21' E 139°49'0 0.0
2018-Feb-16 05:00N 35°21' E 139°49'0 0.2
2018-Feb-16 04:31N 35°21' E 139°49'1 2.0
2018-Feb-16 04:01N 35°22' E 139°49'2 4.5
2018-Feb-16 03:30N 35°23' E 139°46'4 8.1
2018-Feb-16 03:00N 35°19' E 139°44'612.2
2018-Feb-16 02:30N 35°14' E 139°47'510.2
2018-Feb-16 02:00N 35°09' E 139°46'4 8.2
2018-Feb-16 01:30N 35°05' E 139°44'4 8.6
2018-Feb-16 01:00N 35°01' E 139°42'611.6
2018-Feb-16 00:29N 34°55' E 139°41'611.7
2018-Feb-15 23:59N 34°49' E 139°39'612.3
2018-Feb-15 23:30N 34°43' E 139°37'816.8
2018-Feb-15 23:00N 34°35' E 139°34'816.4
2018-Feb-15 22:30N 34°28' E 139°31'916.8
2018-Feb-15 21:59N 34°19' E 139°28'1016.2
2018-Feb-15 21:21N 34°10' E 139°22'  
2018-Feb-11 14:21N 18°49' E 118°47'614.7
2018-Feb-11 13:55N 18°44' E 118°43'  

Dump ship's entire track history